sensor_id;sensor_type;location;lat;lon;timestamp;P1;durP1;ratioP1;P2;durP2;ratioP2
23228;SDS011;11783;50.350;6.576;2023-04-24T00:01:47;1.90;;;1.13;;
23228;SDS011;11783;50.350;6.576;2023-04-24T00:04:12;1.63;;;1.02;;
23228;SDS011;11783;50.350;6.576;2023-04-24T00:06:41;2.63;;;1.33;;
23228;SDS011;11783;50.350;6.576;2023-04-24T00:09:07;2.20;;;1.20;;
23228;SDS011;11783;50.350;6.576;2023-04-24T00:11:35;2.50;;;1.40;;
23228;SDS011;11783;50.350;6.576;2023-04-24T00:14:01;2.75;;;1.50;;
23228;SDS011;11783;50.350;6.576;2023-04-24T00:16:26;4.28;;;1.42;;
23228;SDS011;11783;50.350;6.576;2023-04-24T00:18:52;2.47;;;1.23;;
23228;SDS011;11783;50.350;6.576;2023-04-24T00:21:18;4.35;;;1.50;;
23228;SDS011;11783;50.350;6.576;2023-04-24T00:23:44;4.90;;;1.70;;
23228;SDS011;11783;50.350;6.576;2023-04-24T00:26:11;2.85;;;1.40;;
23228;SDS011;11783;50.350;6.576;2023-04-24T00:28:36;2.67;;;1.50;;
23228;SDS011;11783;50.350;6.576;2023-04-24T00:31:02;3.10;;;1.55;;
23228;SDS011;11783;50.350;6.576;2023-04-24T00:33:27;2.70;;;1.48;;
23228;SDS011;11783;50.350;6.576;2023-04-24T00:36:00;3.50;;;1.48;;
23228;SDS011;11783;50.350;6.576;2023-04-24T00:38:29;2.70;;;1.60;;
23228;SDS011;11783;50.350;6.576;2023-04-24T00:40:54;2.78;;;1.52;;
23228;SDS011;11783;50.350;6.576;2023-04-24T00:43:20;4.03;;;2.20;;
23228;SDS011;11783;50.350;6.576;2023-04-24T00:45:45;5.90;;;2.47;;
23228;SDS011;11783;50.350;6.576;2023-04-24T00:48:11;7.72;;;2.50;;
23228;SDS011;11783;50.350;6.576;2023-04-24T00:50:36;5.60;;;3.10;;
23228;SDS011;11783;50.350;6.576;2023-04-24T00:53:03;5.78;;;2.75;;
23228;SDS011;11783;50.350;6.576;2023-04-24T00:55:29;5.07;;;2.58;;
23228;SDS011;11783;50.350;6.576;2023-04-24T00:57:55;5.43;;;2.90;;
23228;SDS011;11783;50.350;6.576;2023-04-24T01:00:21;5.10;;;3.00;;
23228;SDS011;11783;50.350;6.576;2023-04-24T01:02:47;6.88;;;2.97;;
23228;SDS011;11783;50.350;6.576;2023-04-24T01:05:14;5.20;;;2.78;;
23228;SDS011;11783;50.350;6.576;2023-04-24T01:07:41;5.85;;;3.03;;
23228;SDS011;11783;50.350;6.576;2023-04-24T01:10:10;5.43;;;3.00;;
23228;SDS011;11783;50.350;6.576;2023-04-24T01:12:36;5.40;;;2.88;;
23228;SDS011;11783;50.350;6.576;2023-04-24T01:15:02;5.97;;;2.92;;
23228;SDS011;11783;50.350;6.576;2023-04-24T01:17:28;5.88;;;3.35;;
23228;SDS011;11783;50.350;6.576;2023-04-24T01:19:54;7.93;;;3.95;;
23228;SDS011;11783;50.350;6.576;2023-04-24T01:22:21;9.80;;;4.65;;
23228;SDS011;11783;50.350;6.576;2023-04-24T01:24:48;7.38;;;4.65;;
23228;SDS011;11783;50.350;6.576;2023-04-24T01:27:14;8.68;;;4.90;;
23228;SDS011;11783;50.350;6.576;2023-04-24T01:29:40;6.78;;;4.45;;
23228;SDS011;11783;50.350;6.576;2023-04-24T01:32:06;10.10;;;4.80;;
23228;SDS011;11783;50.350;6.576;2023-04-24T01:34:31;8.10;;;4.50;;
23228;SDS011;11783;50.350;6.576;2023-04-24T01:36:59;7.18;;;4.00;;
23228;SDS011;11783;50.350;6.576;2023-04-24T01:39:25;8.68;;;4.25;;
23228;SDS011;11783;50.350;6.576;2023-04-24T01:41:53;9.93;;;4.70;;
23228;SDS011;11783;50.350;6.576;2023-04-24T01:44:19;8.60;;;4.80;;
23228;SDS011;11783;50.350;6.576;2023-04-24T01:46:45;8.95;;;5.07;;
23228;SDS011;11783;50.350;6.576;2023-04-24T01:49:11;6.90;;;4.38;;
23228;SDS011;11783;50.350;6.576;2023-04-24T01:51:36;8.45;;;4.85;;
23228;SDS011;11783;50.350;6.576;2023-04-24T01:54:02;9.75;;;4.85;;
23228;SDS011;11783;50.350;6.576;2023-04-24T01:56:31;9.32;;;4.82;;
23228;SDS011;11783;50.350;6.576;2023-04-24T01:59:00;8.27;;;4.72;;
23228;SDS011;11783;50.350;6.576;2023-04-24T02:01:31;9.00;;;4.78;;
23228;SDS011;11783;50.350;6.576;2023-04-24T02:03:59;7.72;;;4.50;;
23228;SDS011;11783;50.350;6.576;2023-04-24T02:06:24;8.85;;;5.28;;
23228;SDS011;11783;50.350;6.576;2023-04-24T02:08:50;7.55;;;4.75;;
23228;SDS011;11783;50.350;6.576;2023-04-24T02:11:16;8.95;;;4.68;;
23228;SDS011;11783;50.350;6.576;2023-04-24T02:13:44;7.57;;;4.38;;
23228;SDS011;11783;50.350;6.576;2023-04-24T02:16:09;7.78;;;4.72;;
23228;SDS011;11783;50.350;6.576;2023-04-24T02:18:35;6.82;;;4.03;;
23228;SDS011;11783;50.350;6.576;2023-04-24T02:21:00;10.18;;;4.57;;
23228;SDS011;11783;50.350;6.576;2023-04-24T02:23:26;8.68;;;4.60;;
23228;SDS011;11783;50.350;6.576;2023-04-24T02:25:52;8.05;;;4.40;;
23228;SDS011;11783;50.350;6.576;2023-04-24T02:28:18;8.25;;;4.97;;
23228;SDS011;11783;50.350;6.576;2023-04-24T02:30:44;7.22;;;4.38;;
23228;SDS011;11783;50.350;6.576;2023-04-24T02:33:09;8.32;;;5.32;;
23228;SDS011;11783;50.350;6.576;2023-04-24T02:35:34;10.82;;;5.88;;
23228;SDS011;11783;50.350;6.576;2023-04-24T02:38:00;9.25;;;5.38;;
23228;SDS011;11783;50.350;6.576;2023-04-24T02:40:25;10.23;;;6.15;;
23228;SDS011;11783;50.350;6.576;2023-04-24T02:42:50;10.80;;;5.90;;
23228;SDS011;11783;50.350;6.576;2023-04-24T02:45:16;11.60;;;5.68;;
23228;SDS011;11783;50.350;6.576;2023-04-24T02:47:41;12.57;;;5.50;;
23228;SDS011;11783;50.350;6.576;2023-04-24T02:50:07;12.20;;;6.47;;
23228;SDS011;11783;50.350;6.576;2023-04-24T02:52:32;11.43;;;6.72;;
23228;SDS011;11783;50.350;6.576;2023-04-24T02:54:58;9.85;;;6.10;;
23228;SDS011;11783;50.350;6.576;2023-04-24T02:57:23;10.52;;;6.07;;
23228;SDS011;11783;50.350;6.576;2023-04-24T02:59:48;11.30;;;6.32;;
23228;SDS011;11783;50.350;6.576;2023-04-24T03:02:14;9.82;;;6.03;;
23228;SDS011;11783;50.350;6.576;2023-04-24T03:04:40;10.63;;;6.32;;
23228;SDS011;11783;50.350;6.576;2023-04-24T03:07:05;8.73;;;5.88;;
23228;SDS011;11783;50.350;6.576;2023-04-24T03:09:31;12.48;;;6.03;;
23228;SDS011;11783;50.350;6.576;2023-04-24T03:11:56;11.82;;;6.03;;
23228;SDS011;11783;50.350;6.576;2023-04-24T03:14:22;11.00;;;6.43;;
23228;SDS011;11783;50.350;6.576;2023-04-24T03:16:47;10.00;;;6.40;;
23228;SDS011;11783;50.350;6.576;2023-04-24T03:19:12;9.68;;;6.03;;
23228;SDS011;11783;50.350;6.576;2023-04-24T03:21:38;11.63;;;6.38;;
23228;SDS011;11783;50.350;6.576;2023-04-24T03:24:06;11.40;;;6.50;;
23228;SDS011;11783;50.350;6.576;2023-04-24T03:26:34;10.50;;;6.57;;
23228;SDS011;11783;50.350;6.576;2023-04-24T03:29:00;9.98;;;5.90;;
23228;SDS011;11783;50.350;6.576;2023-04-24T03:31:25;9.93;;;6.30;;
23228;SDS011;11783;50.350;6.576;2023-04-24T03:33:51;12.50;;;6.13;;
23228;SDS011;11783;50.350;6.576;2023-04-24T03:36:16;12.15;;;6.57;;
23228;SDS011;11783;50.350;6.576;2023-04-24T03:38:42;11.68;;;6.68;;
23228;SDS011;11783;50.350;6.576;2023-04-24T03:41:08;10.77;;;6.90;;
23228;SDS011;11783;50.350;6.576;2023-04-24T03:43:33;10.93;;;6.30;;
23228;SDS011;11783;50.350;6.576;2023-04-24T03:45:59;11.18;;;6.95;;
23228;SDS011;11783;50.350;6.576;2023-04-24T03:48:25;12.32;;;6.60;;
23228;SDS011;11783;50.350;6.576;2023-04-24T03:50:50;11.85;;;6.75;;
23228;SDS011;11783;50.350;6.576;2023-04-24T03:53:16;13.75;;;7.57;;
23228;SDS011;11783;50.350;6.576;2023-04-24T03:55:41;13.25;;;7.30;;
23228;SDS011;11783;50.350;6.576;2023-04-24T03:58:07;11.60;;;7.07;;
23228;SDS011;11783;50.350;6.576;2023-04-24T04:00:32;10.90;;;6.97;;
23228;SDS011;11783;50.350;6.576;2023-04-24T04:02:58;12.57;;;7.55;;
23228;SDS011;11783;50.350;6.576;2023-04-24T04:05:23;11.90;;;6.80;;
23228;SDS011;11783;50.350;6.576;2023-04-24T04:07:49;12.25;;;7.80;;
23228;SDS011;11783;50.350;6.576;2023-04-24T04:10:14;13.43;;;7.43;;
23228;SDS011;11783;50.350;6.576;2023-04-24T04:12:39;15.35;;;7.60;;
23228;SDS011;11783;50.350;6.576;2023-04-24T04:15:05;12.13;;;7.43;;
23228;SDS011;11783;50.350;6.576;2023-04-24T04:17:31;11.95;;;7.80;;
23228;SDS011;11783;50.350;6.576;2023-04-24T04:19:57;13.15;;;7.53;;
23228;SDS011;11783;50.350;6.576;2023-04-24T04:22:22;15.02;;;8.15;;
23228;SDS011;11783;50.350;6.576;2023-04-24T04:24:48;13.38;;;8.38;;
23228;SDS011;11783;50.350;6.576;2023-04-24T04:27:13;11.15;;;7.47;;
23228;SDS011;11783;50.350;6.576;2023-04-24T04:29:39;12.88;;;7.45;;
23228;SDS011;11783;50.350;6.576;2023-04-24T04:32:05;13.90;;;8.00;;
23228;SDS011;11783;50.350;6.576;2023-04-24T04:34:31;11.90;;;7.30;;
23228;SDS011;11783;50.350;6.576;2023-04-24T04:36:57;14.93;;;8.75;;
23228;SDS011;11783;50.350;6.576;2023-04-24T04:39:26;12.88;;;8.00;;
23228;SDS011;11783;50.350;6.576;2023-04-24T04:41:53;12.80;;;7.65;;
23228;SDS011;11783;50.350;6.576;2023-04-24T04:44:19;13.15;;;7.47;;
23228;SDS011;11783;50.350;6.576;2023-04-24T04:46:44;14.70;;;7.80;;
23228;SDS011;11783;50.350;6.576;2023-04-24T04:49:10;11.73;;;7.35;;
23228;SDS011;11783;50.350;6.576;2023-04-24T04:51:35;13.00;;;7.90;;
23228;SDS011;11783;50.350;6.576;2023-04-24T04:54:01;12.75;;;8.30;;
23228;SDS011;11783;50.350;6.576;2023-04-24T04:56:26;14.82;;;7.97;;
23228;SDS011;11783;50.350;6.576;2023-04-24T04:58:52;11.80;;;6.75;;
23228;SDS011;11783;50.350;6.576;2023-04-24T05:01:18;14.55;;;8.45;;
23228;SDS011;11783;50.350;6.576;2023-04-24T05:03:43;13.73;;;8.30;;
23228;SDS011;11783;50.350;6.576;2023-04-24T05:06:09;14.75;;;8.20;;
23228;SDS011;11783;50.350;6.576;2023-04-24T05:08:35;14.02;;;8.52;;
23228;SDS011;11783;50.350;6.576;2023-04-24T05:11:00;13.32;;;8.52;;
23228;SDS011;11783;50.350;6.576;2023-04-24T05:13:26;13.50;;;8.30;;
23228;SDS011;11783;50.350;6.576;2023-04-24T05:15:51;14.55;;;8.65;;
23228;SDS011;11783;50.350;6.576;2023-04-24T05:18:16;15.05;;;8.73;;
23228;SDS011;11783;50.350;6.576;2023-04-24T05:20:42;15.80;;;8.75;;
23228;SDS011;11783;50.350;6.576;2023-04-24T05:23:08;14.85;;;8.73;;
23228;SDS011;11783;50.350;6.576;2023-04-24T05:25:34;13.95;;;8.30;;
23228;SDS011;11783;50.350;6.576;2023-04-24T05:28:00;15.57;;;8.93;;
23228;SDS011;11783;50.350;6.576;2023-04-24T05:30:26;18.35;;;8.95;;
23228;SDS011;11783;50.350;6.576;2023-04-24T05:32:52;13.07;;;8.43;;
23228;SDS011;11783;50.350;6.576;2023-04-24T05:35:17;13.10;;;8.55;;
23228;SDS011;11783;50.350;6.576;2023-04-24T05:37:43;15.23;;;8.25;;
23228;SDS011;11783;50.350;6.576;2023-04-24T05:40:09;12.55;;;8.00;;
23228;SDS011;11783;50.350;6.576;2023-04-24T05:42:35;13.82;;;7.65;;
23228;SDS011;11783;50.350;6.576;2023-04-24T05:45:00;16.83;;;8.35;;
23228;SDS011;11783;50.350;6.576;2023-04-24T05:47:26;12.02;;;7.78;;
23228;SDS011;11783;50.350;6.576;2023-04-24T05:49:52;14.60;;;8.57;;
23228;SDS011;11783;50.350;6.576;2023-04-24T05:52:18;14.93;;;8.20;;
23228;SDS011;11783;50.350;6.576;2023-04-24T05:54:43;13.25;;;7.90;;
23228;SDS011;11783;50.350;6.576;2023-04-24T05:57:08;13.25;;;8.30;;
23228;SDS011;11783;50.350;6.576;2023-04-24T05:59:36;14.98;;;8.05;;
23228;SDS011;11783;50.350;6.576;2023-04-24T06:02:03;12.23;;;8.05;;
23228;SDS011;11783;50.350;6.576;2023-04-24T06:04:28;14.35;;;8.82;;
23228;SDS011;11783;50.350;6.576;2023-04-24T06:06:54;13.02;;;7.82;;
23228;SDS011;11783;50.350;6.576;2023-04-24T06:09:21;12.98;;;7.93;;
23228;SDS011;11783;50.350;6.576;2023-04-24T06:11:47;11.52;;;7.70;;
23228;SDS011;11783;50.350;6.576;2023-04-24T06:14:13;12.05;;;7.10;;
23228;SDS011;11783;50.350;6.576;2023-04-24T06:16:40;11.60;;;7.28;;
23228;SDS011;11783;50.350;6.576;2023-04-24T06:19:06;13.23;;;7.45;;
23228;SDS011;11783;50.350;6.576;2023-04-24T06:21:32;10.77;;;6.20;;
23228;SDS011;11783;50.350;6.576;2023-04-24T06:23:57;10.40;;;6.57;;
23228;SDS011;11783;50.350;6.576;2023-04-24T06:26:23;10.13;;;6.30;;
23228;SDS011;11783;50.350;6.576;2023-04-24T06:28:50;12.00;;;6.13;;
23228;SDS011;11783;50.350;6.576;2023-04-24T06:31:16;9.38;;;6.15;;
23228;SDS011;11783;50.350;6.576;2023-04-24T06:33:41;10.48;;;5.88;;
23228;SDS011;11783;50.350;6.576;2023-04-24T06:36:08;9.32;;;5.88;;
23228;SDS011;11783;50.350;6.576;2023-04-24T06:38:33;8.27;;;5.13;;
23228;SDS011;11783;50.350;6.576;2023-04-24T06:40:59;8.32;;;5.05;;
23228;SDS011;11783;50.350;6.576;2023-04-24T06:43:24;9.13;;;4.75;;
23228;SDS011;11783;50.350;6.576;2023-04-24T06:45:50;8.10;;;4.70;;
23228;SDS011;11783;50.350;6.576;2023-04-24T06:48:15;9.07;;;4.57;;
23228;SDS011;11783;50.350;6.576;2023-04-24T06:50:41;7.50;;;4.20;;
23228;SDS011;11783;50.350;6.576;2023-04-24T06:53:06;7.45;;;4.32;;
23228;SDS011;11783;50.350;6.576;2023-04-24T06:55:31;7.07;;;3.92;;
23228;SDS011;11783;50.350;6.576;2023-04-24T06:57:57;6.97;;;3.60;;
23228;SDS011;11783;50.350;6.576;2023-04-24T07:00:22;6.78;;;3.92;;
23228;SDS011;11783;50.350;6.576;2023-04-24T07:02:49;6.05;;;3.50;;
23228;SDS011;11783;50.350;6.576;2023-04-24T07:05:14;7.28;;;3.85;;
23228;SDS011;11783;50.350;6.576;2023-04-24T07:07:40;6.78;;;3.90;;
23228;SDS011;11783;50.350;6.576;2023-04-24T07:10:06;7.28;;;3.90;;
23228;SDS011;11783;50.350;6.576;2023-04-24T07:12:33;6.53;;;3.63;;
23228;SDS011;11783;50.350;6.576;2023-04-24T07:14:59;6.57;;;3.95;;
23228;SDS011;11783;50.350;6.576;2023-04-24T07:17:25;6.97;;;3.60;;
23228;SDS011;11783;50.350;6.576;2023-04-24T07:19:50;5.82;;;3.60;;
23228;SDS011;11783;50.350;6.576;2023-04-24T07:22:16;7.15;;;4.13;;
23228;SDS011;11783;50.350;6.576;2023-04-24T07:24:43;6.13;;;3.80;;
23228;SDS011;11783;50.350;6.576;2023-04-24T07:27:09;6.10;;;3.42;;
23228;SDS011;11783;50.350;6.576;2023-04-24T07:29:34;6.13;;;3.30;;
23228;SDS011;11783;50.350;6.576;2023-04-24T07:32:00;6.57;;;3.30;;
23228;SDS011;11783;50.350;6.576;2023-04-24T07:34:25;5.47;;;3.05;;
23228;SDS011;11783;50.350;6.576;2023-04-24T07:36:51;5.47;;;3.28;;
23228;SDS011;11783;50.350;6.576;2023-04-24T07:39:16;6.18;;;2.97;;
23228;SDS011;11783;50.350;6.576;2023-04-24T07:41:42;5.35;;;3.13;;
23228;SDS011;11783;50.350;6.576;2023-04-24T07:44:07;5.20;;;2.70;;
23228;SDS011;11783;50.350;6.576;2023-04-24T07:46:33;6.13;;;2.70;;
23228;SDS011;11783;50.350;6.576;2023-04-24T07:48:58;5.90;;;2.60;;
23228;SDS011;11783;50.350;6.576;2023-04-24T07:51:26;4.40;;;2.35;;
23228;SDS011;11783;50.350;6.576;2023-04-24T07:53:52;4.13;;;2.15;;
23228;SDS011;11783;50.350;6.576;2023-04-24T07:56:19;3.63;;;1.83;;
23228;SDS011;11783;50.350;6.576;2023-04-24T07:58:45;5.30;;;2.28;;
23228;SDS011;11783;50.350;6.576;2023-04-24T08:01:11;5.03;;;1.95;;
23228;SDS011;11783;50.350;6.576;2023-04-24T08:03:36;5.07;;;2.33;;
23228;SDS011;11783;50.350;6.576;2023-04-24T08:06:01;5.18;;;2.50;;
23228;SDS011;11783;50.350;6.576;2023-04-24T08:08:27;5.43;;;2.47;;
23228;SDS011;11783;50.350;6.576;2023-04-24T08:10:52;5.88;;;3.08;;
23228;SDS011;11783;50.350;6.576;2023-04-24T08:13:17;5.40;;;2.85;;
23228;SDS011;11783;50.350;6.576;2023-04-24T08:15:43;4.85;;;2.65;;
23228;SDS011;11783;50.350;6.576;2023-04-24T08:18:08;7.43;;;3.40;;
23228;SDS011;11783;50.350;6.576;2023-04-24T08:20:36;6.85;;;3.75;;
23228;SDS011;11783;50.350;6.576;2023-04-24T08:23:02;7.28;;;3.83;;
23228;SDS011;11783;50.350;6.576;2023-04-24T08:25:27;6.10;;;3.35;;
23228;SDS011;11783;50.350;6.576;2023-04-24T08:27:52;6.57;;;3.42;;
23228;SDS011;11783;50.350;6.576;2023-04-24T08:30:18;6.15;;;3.40;;
23228;SDS011;11783;50.350;6.576;2023-04-24T08:32:43;6.35;;;3.40;;
23228;SDS011;11783;50.350;6.576;2023-04-24T08:35:09;6.35;;;3.75;;
23228;SDS011;11783;50.350;6.576;2023-04-24T08:37:34;6.03;;;3.38;;
23228;SDS011;11783;50.350;6.576;2023-04-24T08:40:01;6.30;;;3.67;;
23228;SDS011;11783;50.350;6.576;2023-04-24T08:42:30;7.13;;;3.10;;
23228;SDS011;11783;50.350;6.576;2023-04-24T08:44:58;6.95;;;3.20;;
23228;SDS011;11783;50.350;6.576;2023-04-24T08:47:23;8.90;;;4.35;;
23228;SDS011;11783;50.350;6.576;2023-04-24T08:49:51;12.38;;;6.00;;
23228;SDS011;11783;50.350;6.576;2023-04-24T08:52:18;9.02;;;3.90;;
23228;SDS011;11783;50.350;6.576;2023-04-24T08:54:44;10.68;;;5.10;;
23228;SDS011;11783;50.350;6.576;2023-04-24T08:57:11;16.15;;;7.70;;
23228;SDS011;11783;50.350;6.576;2023-04-24T08:59:39;8.93;;;4.95;;
23228;SDS011;11783;50.350;6.576;2023-04-24T09:02:05;7.80;;;4.95;;
23228;SDS011;11783;50.350;6.576;2023-04-24T09:04:34;10.02;;;5.80;;
23228;SDS011;11783;50.350;6.576;2023-04-24T09:07:01;9.95;;;5.43;;
23228;SDS011;11783;50.350;6.576;2023-04-24T09:09:27;10.32;;;4.72;;
23228;SDS011;11783;50.350;6.576;2023-04-24T09:11:57;6.93;;;4.18;;
23228;SDS011;11783;50.350;6.576;2023-04-24T09:14:24;9.35;;;6.03;;
23228;SDS011;11783;50.350;6.576;2023-04-24T09:16:51;11.20;;;6.40;;
23228;SDS011;11783;50.350;6.576;2023-04-24T09:19:16;12.77;;;7.45;;
23228;SDS011;11783;50.350;6.576;2023-04-24T09:21:42;14.55;;;8.00;;
23228;SDS011;11783;50.350;6.576;2023-04-24T09:24:15;14.73;;;8.30;;
23228;SDS011;11783;50.350;6.576;2023-04-24T09:26:42;16.85;;;9.55;;
23228;SDS011;11783;50.350;6.576;2023-04-24T09:29:13;13.73;;;8.80;;
23228;SDS011;11783;50.350;6.576;2023-04-24T09:31:42;18.40;;;9.90;;
23228;SDS011;11783;50.350;6.576;2023-04-24T09:34:08;17.67;;;11.30;;
23228;SDS011;11783;50.350;6.576;2023-04-24T09:36:34;18.13;;;10.25;;
23228;SDS011;11783;50.350;6.576;2023-04-24T09:39:04;16.20;;;9.45;;
23228;SDS011;11783;50.350;6.576;2023-04-24T09:41:31;17.42;;;10.07;;
23228;SDS011;11783;50.350;6.576;2023-04-24T09:44:01;18.23;;;9.13;;
23228;SDS011;11783;50.350;6.576;2023-04-24T09:46:40;18.02;;;9.68;;
23228;SDS011;11783;50.350;6.576;2023-04-24T09:49:11;14.60;;;9.27;;
23228;SDS011;11783;50.350;6.576;2023-04-24T09:51:40;21.42;;;10.00;;
23228;SDS011;11783;50.350;6.576;2023-04-24T09:54:15;21.80;;;11.63;;
23228;SDS011;11783;50.350;6.576;2023-04-24T09:56:43;18.38;;;10.80;;
23228;SDS011;11783;50.350;6.576;2023-04-24T09:59:10;20.48;;;10.55;;
23228;SDS011;11783;50.350;6.576;2023-04-24T10:01:36;20.00;;;10.63;;
23228;SDS011;11783;50.350;6.576;2023-04-24T10:04:03;20.45;;;11.07;;
23228;SDS011;11783;50.350;6.576;2023-04-24T10:06:35;17.58;;;10.82;;
23228;SDS011;11783;50.350;6.576;2023-04-24T10:09:01;17.83;;;11.20;;
23228;SDS011;11783;50.350;6.576;2023-04-24T10:11:27;18.13;;;10.93;;
23228;SDS011;11783;50.350;6.576;2023-04-24T10:13:53;19.05;;;10.93;;
23228;SDS011;11783;50.350;6.576;2023-04-24T10:16:18;18.70;;;10.93;;
23228;SDS011;11783;50.350;6.576;2023-04-24T10:18:46;22.77;;;12.07;;
23228;SDS011;11783;50.350;6.576;2023-04-24T10:21:13;22.92;;;11.95;;
23228;SDS011;11783;50.350;6.576;2023-04-24T10:23:39;21.45;;;11.20;;
23228;SDS011;11783;50.350;6.576;2023-04-24T10:26:06;21.13;;;10.77;;
23228;SDS011;11783;50.350;6.576;2023-04-24T10:28:34;19.23;;;10.88;;
23228;SDS011;11783;50.350;6.576;2023-04-24T10:31:01;18.92;;;11.05;;
23228;SDS011;11783;50.350;6.576;2023-04-24T10:33:27;21.60;;;10.32;;
23228;SDS011;11783;50.350;6.576;2023-04-24T10:35:54;16.27;;;9.07;;
23228;SDS011;11783;50.350;6.576;2023-04-24T10:38:24;17.35;;;9.77;;
23228;SDS011;11783;50.350;6.576;2023-04-24T10:41:14;18.23;;;9.40;;
23228;SDS011;11783;50.350;6.576;2023-04-24T10:46:09;12.32;;;7.03;;
23228;SDS011;11783;50.350;6.576;2023-04-24T10:48:35;12.98;;;7.85;;
23228;SDS011;11783;50.350;6.576;2023-04-24T10:51:01;16.70;;;9.18;;
23228;SDS011;11783;50.350;6.576;2023-04-24T10:53:27;18.17;;;9.27;;
23228;SDS011;11783;50.350;6.576;2023-04-24T10:56:04;17.35;;;9.35;;
23228;SDS011;11783;50.350;6.576;2023-04-24T11:01:29;18.48;;;10.52;;
23228;SDS011;11783;50.350;6.576;2023-04-24T11:04:02;19.17;;;10.60;;
23228;SDS011;11783;50.350;6.576;2023-04-24T11:06:32;16.30;;;10.60;;
23228;SDS011;11783;50.350;6.576;2023-04-24T11:09:06;21.38;;;10.85;;
23228;SDS011;11783;50.350;6.576;2023-04-24T11:11:34;21.40;;;10.23;;
23228;SDS011;11783;50.350;6.576;2023-04-24T11:14:03;18.85;;;10.43;;
23228;SDS011;11783;50.350;6.576;2023-04-24T11:19:08;19.02;;;10.18;;
23228;SDS011;11783;50.350;6.576;2023-04-24T11:21:58;21.70;;;10.88;;
23228;SDS011;11783;50.350;6.576;2023-04-24T11:35:08;18.85;;;8.45;;
23228;SDS011;11783;50.350;6.576;2023-04-24T11:37:40;13.88;;;7.97;;
23228;SDS011;11783;50.350;6.576;2023-04-24T11:40:11;14.18;;;7.40;;
23228;SDS011;11783;50.350;6.576;2023-04-24T11:42:42;14.30;;;7.53;;
23228;SDS011;11783;50.350;6.576;2023-04-24T11:47:47;13.32;;;7.07;;
23228;SDS011;11783;50.350;6.576;2023-04-24T11:50:14;14.95;;;7.13;;
23228;SDS011;11783;50.350;6.576;2023-04-24T11:52:41;10.27;;;6.75;;
23228;SDS011;11783;50.350;6.576;2023-04-24T11:55:22;11.80;;;6.07;;
23228;SDS011;11783;50.350;6.576;2023-04-24T11:57:49;12.93;;;6.70;;
23228;SDS011;11783;50.350;6.576;2023-04-24T12:00:16;12.77;;;7.10;;
23228;SDS011;11783;50.350;6.576;2023-04-24T12:02:43;13.32;;;7.22;;
23228;SDS011;11783;50.350;6.576;2023-04-24T12:05:12;13.98;;;6.97;;
23228;SDS011;11783;50.350;6.576;2023-04-24T12:07:44;10.55;;;6.68;;
23228;SDS011;11783;50.350;6.576;2023-04-24T12:10:10;15.85;;;6.72;;
23228;SDS011;11783;50.350;6.576;2023-04-24T12:12:35;11.30;;;6.55;;
23228;SDS011;11783;50.350;6.576;2023-04-24T12:15:01;13.32;;;6.50;;
23228;SDS011;11783;50.350;6.576;2023-04-24T12:17:33;13.57;;;7.15;;
23228;SDS011;11783;50.350;6.576;2023-04-24T12:20:00;12.75;;;7.10;;
23228;SDS011;11783;50.350;6.576;2023-04-24T12:22:43;11.50;;;6.67;;
23228;SDS011;11783;50.350;6.576;2023-04-24T12:25:10;12.32;;;6.20;;
23228;SDS011;11783;50.350;6.576;2023-04-24T12:27:35;13.40;;;6.10;;
23228;SDS011;11783;50.350;6.576;2023-04-24T12:30:02;10.77;;;5.35;;
23228;SDS011;11783;50.350;6.576;2023-04-24T12:32:29;11.20;;;6.10;;
23228;SDS011;11783;50.350;6.576;2023-04-24T12:34:54;13.00;;;6.50;;
23228;SDS011;11783;50.350;6.576;2023-04-24T12:37:22;9.90;;;5.93;;
23228;SDS011;11783;50.350;6.576;2023-04-24T12:40:01;12.43;;;6.45;;
23228;SDS011;11783;50.350;6.576;2023-04-24T12:42:28;10.88;;;6.40;;
23228;SDS011;11783;50.350;6.576;2023-04-24T12:45:01;16.02;;;6.63;;
23228;SDS011;11783;50.350;6.576;2023-04-24T12:47:29;13.68;;;6.30;;
23228;SDS011;11783;50.350;6.576;2023-04-24T12:49:55;11.75;;;6.05;;
23228;SDS011;11783;50.350;6.576;2023-04-24T12:52:24;14.85;;;6.97;;
23228;SDS011;11783;50.350;6.576;2023-04-24T12:54:52;11.13;;;6.93;;
23228;SDS011;11783;50.350;6.576;2023-04-24T12:57:18;12.30;;;6.05;;
23228;SDS011;11783;50.350;6.576;2023-04-24T12:59:44;12.18;;;7.20;;
23228;SDS011;11783;50.350;6.576;2023-04-24T13:02:10;14.20;;;7.13;;
23228;SDS011;11783;50.350;6.576;2023-04-24T13:04:36;9.95;;;6.88;;
23228;SDS011;11783;50.350;6.576;2023-04-24T13:07:01;14.43;;;7.38;;
23228;SDS011;11783;50.350;6.576;2023-04-24T13:09:27;13.10;;;7.28;;
23228;SDS011;11783;50.350;6.576;2023-04-24T13:11:52;13.45;;;7.65;;
23228;SDS011;11783;50.350;6.576;2023-04-24T13:14:20;13.30;;;7.03;;
23228;SDS011;11783;50.350;6.576;2023-04-24T13:16:45;14.45;;;6.70;;
23228;SDS011;11783;50.350;6.576;2023-04-24T13:19:11;11.68;;;6.60;;
23228;SDS011;11783;50.350;6.576;2023-04-24T13:21:36;15.27;;;6.78;;
23228;SDS011;11783;50.350;6.576;2023-04-24T13:24:01;12.38;;;7.03;;
23228;SDS011;11783;50.350;6.576;2023-04-24T13:26:28;12.52;;;6.28;;
23228;SDS011;11783;50.350;6.576;2023-04-24T13:28:54;10.70;;;5.95;;
23228;SDS011;11783;50.350;6.576;2023-04-24T13:31:19;12.07;;;6.00;;
23228;SDS011;11783;50.350;6.576;2023-04-24T13:33:44;11.10;;;6.72;;
23228;SDS011;11783;50.350;6.576;2023-04-24T13:36:10;11.60;;;6.53;;
23228;SDS011;11783;50.350;6.576;2023-04-24T13:38:35;13.88;;;7.00;;
23228;SDS011;11783;50.350;6.576;2023-04-24T13:41:00;15.85;;;6.75;;
23228;SDS011;11783;50.350;6.576;2023-04-24T13:43:26;13.77;;;6.80;;
23228;SDS011;11783;50.350;6.576;2023-04-24T13:45:51;14.05;;;6.85;;
23228;SDS011;11783;50.350;6.576;2023-04-24T13:48:17;15.48;;;7.32;;
23228;SDS011;11783;50.350;6.576;2023-04-24T13:50:43;12.40;;;7.80;;
23228;SDS011;11783;50.350;6.576;2023-04-24T13:53:09;15.90;;;6.63;;
23228;SDS011;11783;50.350;6.576;2023-04-24T13:55:34;10.60;;;6.50;;
23228;SDS011;11783;50.350;6.576;2023-04-24T13:58:00;13.98;;;6.65;;
23228;SDS011;11783;50.350;6.576;2023-04-24T14:00:26;12.18;;;7.03;;
23228;SDS011;11783;50.350;6.576;2023-04-24T14:02:52;14.25;;;7.07;;
23228;SDS011;11783;50.350;6.576;2023-04-24T14:05:17;11.73;;;6.88;;
23228;SDS011;11783;50.350;6.576;2023-04-24T14:07:43;11.80;;;6.50;;
23228;SDS011;11783;50.350;6.576;2023-04-24T14:10:08;14.27;;;6.78;;
23228;SDS011;11783;50.350;6.576;2023-04-24T14:12:34;12.23;;;6.68;;
23228;SDS011;11783;50.350;6.576;2023-04-24T14:15:00;12.20;;;6.63;;
23228;SDS011;11783;50.350;6.576;2023-04-24T14:17:26;13.85;;;7.00;;
23228;SDS011;11783;50.350;6.576;2023-04-24T14:19:52;11.20;;;5.78;;
23228;SDS011;11783;50.350;6.576;2023-04-24T14:22:20;9.70;;;5.63;;
23228;SDS011;11783;50.350;6.576;2023-04-24T14:24:46;7.45;;;4.65;;
23228;SDS011;11783;50.350;6.576;2023-04-24T14:27:11;9.50;;;4.68;;
23228;SDS011;11783;50.350;6.576;2023-04-24T14:29:36;8.38;;;4.60;;
23228;SDS011;11783;50.350;6.576;2023-04-24T14:32:02;9.48;;;5.68;;
23228;SDS011;11783;50.350;6.576;2023-04-24T14:34:27;7.93;;;5.20;;
23228;SDS011;11783;50.350;6.576;2023-04-24T14:36:52;8.95;;;5.28;;
23228;SDS011;11783;50.350;6.576;2023-04-24T14:39:18;8.50;;;5.25;;
23228;SDS011;11783;50.350;6.576;2023-04-24T14:41:43;13.45;;;5.70;;
23228;SDS011;11783;50.350;6.576;2023-04-24T14:44:09;10.02;;;5.60;;
23228;SDS011;11783;50.350;6.576;2023-04-24T14:46:35;10.35;;;5.30;;
23228;SDS011;11783;50.350;6.576;2023-04-24T14:49:01;10.30;;;6.22;;
23228;SDS011;11783;50.350;6.576;2023-04-24T14:51:26;9.13;;;6.22;;
23228;SDS011;11783;50.350;6.576;2023-04-24T14:53:52;9.63;;;5.95;;
23228;SDS011;11783;50.350;6.576;2023-04-24T14:56:17;11.93;;;6.30;;